sensor_id;sensor_type;location;lat;lon;timestamp;P1;durP1;ratioP1;P2;durP2;ratioP2
42598;SDS011;28225;42.714;23.860;2022-12-24T00:01:53;50.47;;;24.98;;
42598;SDS011;28225;42.714;23.860;2022-12-24T00:04:18;50.92;;;23.30;;
42598;SDS011;28225;42.714;23.860;2022-12-24T00:06:43;41.80;;;19.83;;
42598;SDS011;28225;42.714;23.860;2022-12-24T00:09:09;39.78;;;20.27;;
42598;SDS011;28225;42.714;23.860;2022-12-24T00:11:34;39.50;;;21.42;;
42598;SDS011;28225;42.714;23.860;2022-12-24T00:14:00;42.33;;;20.30;;
42598;SDS011;28225;42.714;23.860;2022-12-24T00:16:26;37.00;;;19.08;;
42598;SDS011;28225;42.714;23.860;2022-12-24T00:18:51;41.28;;;20.83;;
42598;SDS011;28225;42.714;23.860;2022-12-24T00:21:17;37.30;;;19.45;;
42598;SDS011;28225;42.714;23.860;2022-12-24T00:23:42;45.33;;;18.30;;
42598;SDS011;28225;42.714;23.860;2022-12-24T00:26:08;40.17;;;19.75;;
42598;SDS011;28225;42.714;23.860;2022-12-24T00:28:33;52.63;;;23.95;;
42598;SDS011;28225;42.714;23.860;2022-12-24T00:30:59;47.42;;;23.92;;
42598;SDS011;28225;42.714;23.860;2022-12-24T00:33:24;40.72;;;23.33;;
42598;SDS011;28225;42.714;23.860;2022-12-24T00:35:50;37.50;;;19.00;;
42598;SDS011;28225;42.714;23.860;2022-12-24T00:38:16;38.13;;;18.20;;
42598;SDS011;28225;42.714;23.860;2022-12-24T00:40:42;42.80;;;19.95;;
42598;SDS011;28225;42.714;23.860;2022-12-24T00:43:07;42.20;;;20.05;;
42598;SDS011;28225;42.714;23.860;2022-12-24T00:45:32;32.50;;;17.10;;
42598;SDS011;28225;42.714;23.860;2022-12-24T00:47:58;40.50;;;20.63;;
42598;SDS011;28225;42.714;23.860;2022-12-24T00:50:23;35.03;;;18.38;;
42598;SDS011;28225;42.714;23.860;2022-12-24T00:52:49;42.47;;;20.85;;
42598;SDS011;28225;42.714;23.860;2022-12-24T00:55:14;45.15;;;20.55;;
42598;SDS011;28225;42.714;23.860;2022-12-24T00:57:40;56.10;;;29.77;;
42598;SDS011;28225;42.714;23.860;2022-12-24T01:00:05;59.17;;;29.58;;
42598;SDS011;28225;42.714;23.860;2022-12-24T01:02:32;48.75;;;25.48;;
42598;SDS011;28225;42.714;23.860;2022-12-24T01:04:57;57.63;;;27.80;;
42598;SDS011;28225;42.714;23.860;2022-12-24T01:07:35;53.50;;;23.05;;
42598;SDS011;28225;42.714;23.860;2022-12-24T01:10:02;39.28;;;18.65;;
42598;SDS011;28225;42.714;23.860;2022-12-24T01:12:28;44.17;;;16.70;;
42598;SDS011;28225;42.714;23.860;2022-12-24T01:14:54;33.83;;;17.75;;
42598;SDS011;28225;42.714;23.860;2022-12-24T01:17:19;52.17;;;20.33;;
42598;SDS011;28225;42.714;23.860;2022-12-24T01:19:45;86.22;;;27.88;;
42598;SDS011;28225;42.714;23.860;2022-12-24T01:22:10;104.03;;;42.17;;
42598;SDS011;28225;42.714;23.860;2022-12-24T01:24:36;68.13;;;32.35;;
42598;SDS011;28225;42.714;23.860;2022-12-24T01:27:01;67.47;;;31.67;;
42598;SDS011;28225;42.714;23.860;2022-12-24T01:29:27;49.28;;;24.00;;
42598;SDS011;28225;42.714;23.860;2022-12-24T01:31:53;48.67;;;24.52;;
42598;SDS011;28225;42.714;23.860;2022-12-24T01:34:18;51.22;;;24.75;;
42598;SDS011;28225;42.714;23.860;2022-12-24T01:36:44;34.38;;;20.25;;
42598;SDS011;28225;42.714;23.860;2022-12-24T01:39:09;40.75;;;16.23;;
42598;SDS011;28225;42.714;23.860;2022-12-24T01:41:34;37.25;;;16.67;;
42598;SDS011;28225;42.714;23.860;2022-12-24T01:44:20;30.73;;;16.25;;
42598;SDS011;28225;42.714;23.860;2022-12-24T01:46:48;37.25;;;19.25;;
42598;SDS011;28225;42.714;23.860;2022-12-24T01:49:17;36.22;;;19.40;;
42598;SDS011;28225;42.714;23.860;2022-12-24T01:51:44;58.58;;;18.05;;
42598;SDS011;28225;42.714;23.860;2022-12-24T01:54:20;39.72;;;19.73;;
42598;SDS011;28225;42.714;23.860;2022-12-24T01:57:09;47.13;;;19.58;;
42598;SDS011;28225;42.714;23.860;2022-12-24T01:59:38;51.83;;;18.80;;
42598;SDS011;28225;42.714;23.860;2022-12-24T02:02:05;65.50;;;20.13;;
42598;SDS011;28225;42.714;23.860;2022-12-24T02:04:41;67.28;;;17.90;;
42598;SDS011;28225;42.714;23.860;2022-12-24T02:07:11;46.58;;;18.58;;
42598;SDS011;28225;42.714;23.860;2022-12-24T02:09:36;48.97;;;18.70;;
42598;SDS011;28225;42.714;23.860;2022-12-24T02:12:03;44.45;;;20.52;;
42598;SDS011;28225;42.714;23.860;2022-12-24T02:14:30;45.85;;;19.83;;
42598;SDS011;28225;42.714;23.860;2022-12-24T02:31:30;56.80;;;20.10;;
42598;SDS011;28225;42.714;23.860;2022-12-24T02:34:09;56.88;;;24.17;;
42598;SDS011;28225;42.714;23.860;2022-12-24T02:36:41;66.70;;;23.40;;
42598;SDS011;28225;42.714;23.860;2022-12-24T02:39:09;59.00;;;23.52;;
42598;SDS011;28225;42.714;23.860;2022-12-24T02:41:44;41.70;;;20.25;;
42598;SDS011;28225;42.714;23.860;2022-12-24T02:47:33;62.92;;;19.55;;
42598;SDS011;28225;42.714;23.860;2022-12-24T02:50:00;53.28;;;20.45;;
42598;SDS011;28225;42.714;23.860;2022-12-24T02:52:27;36.55;;;19.27;;
42598;SDS011;28225;42.714;23.860;2022-12-24T02:54:53;38.38;;;16.70;;
42598;SDS011;28225;42.714;23.860;2022-12-24T02:57:21;52.95;;;19.90;;
42598;SDS011;28225;42.714;23.860;2022-12-24T03:00:01;66.95;;;21.08;;
42598;SDS011;28225;42.714;23.860;2022-12-24T03:05:12;40.28;;;17.02;;
42598;SDS011;28225;42.714;23.860;2022-12-24T03:10:30;36.53;;;17.65;;
42598;SDS011;28225;42.714;23.860;2022-12-24T03:13:14;43.97;;;15.23;;
42598;SDS011;28225;42.714;23.860;2022-12-24T03:15:41;34.45;;;14.38;;
42598;SDS011;28225;42.714;23.860;2022-12-24T03:18:07;45.42;;;16.20;;
42598;SDS011;28225;42.714;23.860;2022-12-24T03:20:39;43.55;;;17.02;;
42598;SDS011;28225;42.714;23.860;2022-12-24T03:23:09;34.63;;;15.30;;
42598;SDS011;28225;42.714;23.860;2022-12-24T03:25:37;49.58;;;15.93;;
42598;SDS011;28225;42.714;23.860;2022-12-24T03:30:32;36.90;;;15.60;;
42598;SDS011;28225;42.714;23.860;2022-12-24T03:32:58;28.77;;;14.35;;
42598;SDS011;28225;42.714;23.860;2022-12-24T03:35:23;23.80;;;12.10;;
42598;SDS011;28225;42.714;23.860;2022-12-24T03:37:49;26.05;;;13.27;;
42598;SDS011;28225;42.714;23.860;2022-12-24T03:40:15;33.67;;;11.25;;
42598;SDS011;28225;42.714;23.860;2022-12-24T03:42:40;42.95;;;12.80;;
42598;SDS011;28225;42.714;23.860;2022-12-24T03:45:06;52.95;;;12.80;;
42598;SDS011;28225;42.714;23.860;2022-12-24T03:47:32;38.20;;;12.90;;
42598;SDS011;28225;42.714;23.860;2022-12-24T03:49:57;46.33;;;11.70;;
42598;SDS011;28225;42.714;23.860;2022-12-24T03:52:23;64.60;;;14.60;;
42598;SDS011;28225;42.714;23.860;2022-12-24T03:54:48;77.28;;;16.92;;
42598;SDS011;28225;42.714;23.860;2022-12-24T03:57:14;37.40;;;12.07;;
42598;SDS011;28225;42.714;23.860;2022-12-24T03:59:39;48.60;;;11.90;;
42598;SDS011;28225;42.714;23.860;2022-12-24T04:02:05;28.95;;;10.55;;
42598;SDS011;28225;42.714;23.860;2022-12-24T04:04:30;51.30;;;10.27;;
42598;SDS011;28225;42.714;23.860;2022-12-24T04:06:57;38.13;;;10.50;;
42598;SDS011;28225;42.714;23.860;2022-12-24T04:09:23;42.50;;;10.52;;
42598;SDS011;28225;42.714;23.860;2022-12-24T04:11:48;61.40;;;10.82;;
42598;SDS011;28225;42.714;23.860;2022-12-24T04:14:14;38.45;;;9.93;;
42598;SDS011;28225;42.714;23.860;2022-12-24T04:16:39;23.77;;;9.30;;
42598;SDS011;28225;42.714;23.860;2022-12-24T04:19:05;28.70;;;11.68;;
42598;SDS011;28225;42.714;23.860;2022-12-24T04:21:30;32.28;;;10.60;;
42598;SDS011;28225;42.714;23.860;2022-12-24T04:23:55;27.42;;;9.75;;
42598;SDS011;28225;42.714;23.860;2022-12-24T04:26:21;59.90;;;13.32;;
42598;SDS011;28225;42.714;23.860;2022-12-24T04:28:46;70.38;;;12.23;;
42598;SDS011;28225;42.714;23.860;2022-12-24T04:31:13;62.47;;;14.82;;
42598;SDS011;28225;42.714;23.860;2022-12-24T04:33:39;50.88;;;12.05;;
42598;SDS011;28225;42.714;23.860;2022-12-24T04:36:05;59.47;;;12.05;;
42598;SDS011;28225;42.714;23.860;2022-12-24T04:38:31;34.10;;;9.63;;
42598;SDS011;28225;42.714;23.860;2022-12-24T04:41:01;53.72;;;12.02;;
42598;SDS011;28225;42.714;23.860;2022-12-24T04:43:31;38.70;;;11.73;;
42598;SDS011;28225;42.714;23.860;2022-12-24T04:46:04;59.28;;;12.18;;
42598;SDS011;28225;42.714;23.860;2022-12-24T04:48:33;55.28;;;12.43;;
42598;SDS011;28225;42.714;23.860;2022-12-24T04:51:00;59.35;;;16.48;;
42598;SDS011;28225;42.714;23.860;2022-12-24T04:53:27;76.70;;;13.88;;
42598;SDS011;28225;42.714;23.860;2022-12-24T04:55:52;55.08;;;13.50;;
42598;SDS011;28225;42.714;23.860;2022-12-24T04:58:17;41.92;;;13.63;;
42598;SDS011;28225;42.714;23.860;2022-12-24T05:00:43;44.90;;;13.65;;
42598;SDS011;28225;42.714;23.860;2022-12-24T05:03:08;42.53;;;13.88;;
42598;SDS011;28225;42.714;23.860;2022-12-24T05:05:34;39.78;;;15.50;;
42598;SDS011;28225;42.714;23.860;2022-12-24T05:07:59;73.25;;;22.25;;
42598;SDS011;28225;42.714;23.860;2022-12-24T05:10:25;72.43;;;24.42;;
42598;SDS011;28225;42.714;23.860;2022-12-24T05:12:50;73.45;;;23.90;;
42598;SDS011;28225;42.714;23.860;2022-12-24T05:15:15;47.33;;;18.25;;
42598;SDS011;28225;42.714;23.860;2022-12-24T05:17:41;50.38;;;18.23;;
42598;SDS011;28225;42.714;23.860;2022-12-24T05:20:06;42.95;;;14.05;;
42598;SDS011;28225;42.714;23.860;2022-12-24T05:22:32;74.45;;;16.20;;
42598;SDS011;28225;42.714;23.860;2022-12-24T05:25:16;43.88;;;13.68;;
42598;SDS011;28225;42.714;23.860;2022-12-24T05:28:00;45.25;;;13.65;;
42598;SDS011;28225;42.714;23.860;2022-12-24T05:30:25;45.60;;;13.45;;
42598;SDS011;28225;42.714;23.860;2022-12-24T05:32:51;39.05;;;14.70;;
42598;SDS011;28225;42.714;23.860;2022-12-24T05:35:16;50.45;;;12.85;;
42598;SDS011;28225;42.714;23.860;2022-12-24T05:37:42;45.28;;;15.85;;
42598;SDS011;28225;42.714;23.860;2022-12-24T05:40:07;40.97;;;14.48;;
42598;SDS011;28225;42.714;23.860;2022-12-24T05:42:33;72.88;;;17.23;;
42598;SDS011;28225;42.714;23.860;2022-12-24T05:44:59;56.42;;;15.23;;
42598;SDS011;28225;42.714;23.860;2022-12-24T05:47:24;87.05;;;29.40;;
42598;SDS011;28225;42.714;23.860;2022-12-24T05:49:50;115.35;;;31.13;;
42598;SDS011;28225;42.714;23.860;2022-12-24T05:52:15;95.88;;;25.48;;
42598;SDS011;28225;42.714;23.860;2022-12-24T05:54:41;93.13;;;21.58;;
42598;SDS011;28225;42.714;23.860;2022-12-24T05:57:06;85.47;;;22.50;;
42598;SDS011;28225;42.714;23.860;2022-12-24T05:59:32;68.75;;;23.73;;
42598;SDS011;28225;42.714;23.860;2022-12-24T06:01:57;88.60;;;19.35;;
42598;SDS011;28225;42.714;23.860;2022-12-24T06:04:23;90.50;;;17.58;;
42598;SDS011;28225;42.714;23.860;2022-12-24T06:06:48;62.53;;;18.23;;
42598;SDS011;28225;42.714;23.860;2022-12-24T06:09:14;75.18;;;20.88;;
42598;SDS011;28225;42.714;23.860;2022-12-24T06:11:39;91.72;;;22.15;;
42598;SDS011;28225;42.714;23.860;2022-12-24T06:14:05;151.05;;;39.50;;
42598;SDS011;28225;42.714;23.860;2022-12-24T06:16:30;76.78;;;21.13;;
42598;SDS011;28225;42.714;23.860;2022-12-24T06:18:56;49.55;;;16.98;;
42598;SDS011;28225;42.714;23.860;2022-12-24T06:21:21;61.58;;;16.63;;
42598;SDS011;28225;42.714;23.860;2022-12-24T06:23:47;92.60;;;25.10;;
42598;SDS011;28225;42.714;23.860;2022-12-24T06:26:14;68.15;;;28.33;;
42598;SDS011;28225;42.714;23.860;2022-12-24T06:28:43;58.35;;;24.80;;
42598;SDS011;28225;42.714;23.860;2022-12-24T06:31:11;48.63;;;22.83;;
42598;SDS011;28225;42.714;23.860;2022-12-24T06:33:37;56.60;;;26.17;;
42598;SDS011;28225;42.714;23.860;2022-12-24T06:36:06;73.07;;;41.35;;
42598;SDS011;28225;42.714;23.860;2022-12-24T06:38:33;53.25;;;29.13;;
42598;SDS011;28225;42.714;23.860;2022-12-24T06:40:58;92.43;;;39.67;;
42598;SDS011;28225;42.714;23.860;2022-12-24T06:43:24;77.20;;;36.13;;
42598;SDS011;28225;42.714;23.860;2022-12-24T06:45:49;70.93;;;32.28;;
42598;SDS011;28225;42.714;23.860;2022-12-24T06:48:15;63.97;;;30.67;;
42598;SDS011;28225;42.714;23.860;2022-12-24T06:50:41;75.20;;;34.15;;
42598;SDS011;28225;42.714;23.860;2022-12-24T06:53:06;68.57;;;32.03;;
42598;SDS011;28225;42.714;23.860;2022-12-24T06:55:32;65.55;;;32.83;;
42598;SDS011;28225;42.714;23.860;2022-12-24T06:57:57;65.88;;;29.65;;
42598;SDS011;28225;42.714;23.860;2022-12-24T07:00:23;45.42;;;23.17;;
42598;SDS011;28225;42.714;23.860;2022-12-24T07:02:48;47.42;;;24.58;;
42598;SDS011;28225;42.714;23.860;2022-12-24T07:05:14;37.80;;;20.55;;
42598;SDS011;28225;42.714;23.860;2022-12-24T07:07:41;47.13;;;21.88;;
42598;SDS011;28225;42.714;23.860;2022-12-24T07:10:09;36.78;;;16.85;;
42598;SDS011;28225;42.714;23.860;2022-12-24T07:12:35;30.42;;;17.52;;
42598;SDS011;28225;42.714;23.860;2022-12-24T07:15:01;29.67;;;16.48;;
42598;SDS011;28225;42.714;23.860;2022-12-24T07:17:26;33.00;;;17.02;;
42598;SDS011;28225;42.714;23.860;2022-12-24T07:19:52;34.03;;;19.40;;
42598;SDS011;28225;42.714;23.860;2022-12-24T07:22:17;46.08;;;23.42;;
42598;SDS011;28225;42.714;23.860;2022-12-24T07:24:43;50.08;;;24.67;;
42598;SDS011;28225;42.714;23.860;2022-12-24T07:27:08;45.97;;;21.52;;
42598;SDS011;28225;42.714;23.860;2022-12-24T07:29:34;38.88;;;21.00;;
42598;SDS011;28225;42.714;23.860;2022-12-24T07:32:00;30.25;;;17.67;;
42598;SDS011;28225;42.714;23.860;2022-12-24T07:34:25;29.02;;;15.55;;
42598;SDS011;28225;42.714;23.860;2022-12-24T07:36:51;28.23;;;16.48;;
42598;SDS011;28225;42.714;23.860;2022-12-24T07:39:16;32.40;;;17.63;;
42598;SDS011;28225;42.714;23.860;2022-12-24T07:41:42;23.92;;;14.10;;
42598;SDS011;28225;42.714;23.860;2022-12-24T07:44:10;19.70;;;10.95;;
42598;SDS011;28225;42.714;23.860;2022-12-24T07:46:37;19.45;;;11.32;;
42598;SDS011;28225;42.714;23.860;2022-12-24T07:49:03;21.98;;;11.70;;
42598;SDS011;28225;42.714;23.860;2022-12-24T07:51:28;25.95;;;13.60;;
42598;SDS011;28225;42.714;23.860;2022-12-24T07:53:53;28.35;;;14.55;;
42598;SDS011;28225;42.714;23.860;2022-12-24T07:56:19;32.42;;;13.30;;
42598;SDS011;28225;42.714;23.860;2022-12-24T07:58:45;29.95;;;14.55;;
42598;SDS011;28225;42.714;23.860;2022-12-24T08:01:10;33.60;;;13.55;;
42598;SDS011;28225;42.714;23.860;2022-12-24T08:03:36;32.40;;;13.13;;
42598;SDS011;28225;42.714;23.860;2022-12-24T08:06:01;24.52;;;11.57;;
42598;SDS011;28225;42.714;23.860;2022-12-24T08:08:27;46.80;;;12.20;;
42598;SDS011;28225;42.714;23.860;2022-12-24T08:10:53;51.65;;;13.27;;
42598;SDS011;28225;42.714;23.860;2022-12-24T08:13:18;63.30;;;13.95;;
42598;SDS011;28225;42.714;23.860;2022-12-24T08:15:44;36.65;;;12.13;;
42598;SDS011;28225;42.714;23.860;2022-12-24T08:18:10;59.63;;;17.05;;
42598;SDS011;28225;42.714;23.860;2022-12-24T08:20:38;106.30;;;15.00;;
42598;SDS011;28225;42.714;23.860;2022-12-24T08:25:30;61.00;;;15.88;;
42598;SDS011;28225;42.714;23.860;2022-12-24T08:27:56;139.88;;;20.58;;
42598;SDS011;28225;42.714;23.860;2022-12-24T08:30:21;138.57;;;18.65;;
42598;SDS011;28225;42.714;23.860;2022-12-24T08:32:47;100.60;;;15.40;;
42598;SDS011;28225;42.714;23.860;2022-12-24T08:35:13;126.18;;;17.77;;
42598;SDS011;28225;42.714;23.860;2022-12-24T08:37:38;122.30;;;15.85;;
42598;SDS011;28225;42.714;23.860;2022-12-24T08:40:04;68.80;;;13.60;;
42598;SDS011;28225;42.714;23.860;2022-12-24T08:42:30;73.47;;;12.68;;
42598;SDS011;28225;42.714;23.860;2022-12-24T08:44:55;66.60;;;14.82;;
42598;SDS011;28225;42.714;23.860;2022-12-24T08:47:20;42.08;;;15.43;;
42598;SDS011;28225;42.714;23.860;2022-12-24T08:49:46;53.08;;;17.98;;
42598;SDS011;28225;42.714;23.860;2022-12-24T08:52:11;48.60;;;16.73;;
42598;SDS011;28225;42.714;23.860;2022-12-24T08:54:37;61.42;;;17.55;;
42598;SDS011;28225;42.714;23.860;2022-12-24T08:57:02;41.13;;;15.40;;
42598;SDS011;28225;42.714;23.860;2022-12-24T08:59:28;27.95;;;14.15;;
42598;SDS011;28225;42.714;23.860;2022-12-24T09:01:54;32.28;;;14.75;;
42598;SDS011;28225;42.714;23.860;2022-12-24T09:04:20;34.72;;;15.88;;
42598;SDS011;28225;42.714;23.860;2022-12-24T09:06:45;32.25;;;14.65;;
42598;SDS011;28225;42.714;23.860;2022-12-24T09:09:11;35.83;;;16.20;;
42598;SDS011;28225;42.714;23.860;2022-12-24T09:11:36;47.00;;;19.50;;
42598;SDS011;28225;42.714;23.860;2022-12-24T09:14:01;42.88;;;19.88;;
42598;SDS011;28225;42.714;23.860;2022-12-24T09:16:27;31.95;;;18.02;;
42598;SDS011;28225;42.714;23.860;2022-12-24T09:18:53;62.42;;;34.72;;
42598;SDS011;28225;42.714;23.860;2022-12-24T09:21:18;76.18;;;35.30;;
42598;SDS011;28225;42.714;23.860;2022-12-24T09:23:45;47.58;;;25.38;;
42598;SDS011;28225;42.714;23.860;2022-12-24T09:26:16;40.88;;;21.67;;
42598;SDS011;28225;42.714;23.860;2022-12-24T09:28:42;42.30;;;22.45;;
42598;SDS011;28225;42.714;23.860;2022-12-24T09:31:08;36.05;;;18.90;;
42598;SDS011;28225;42.714;23.860;2022-12-24T09:33:35;33.40;;;19.98;;
42598;SDS011;28225;42.714;23.860;2022-12-24T09:36:02;42.40;;;20.38;;
42598;SDS011;28225;42.714;23.860;2022-12-24T09:38:27;34.67;;;18.02;;
42598;SDS011;28225;42.714;23.860;2022-12-24T09:40:54;49.88;;;25.10;;
42598;SDS011;28225;42.714;23.860;2022-12-24T09:43:22;44.65;;;25.38;;
42598;SDS011;28225;42.714;23.860;2022-12-24T09:48:28;37.83;;;21.95;;
42598;SDS011;28225;42.714;23.860;2022-12-24T09:51:06;37.88;;;23.45;;
42598;SDS011;28225;42.714;23.860;2022-12-24T09:54:10;93.18;;;44.67;;
42598;SDS011;28225;42.714;23.860;2022-12-24T09:56:41;108.93;;;53.63;;
42598;SDS011;28225;42.714;23.860;2022-12-24T10:01:44;113.05;;;56.42;;
42598;SDS011;28225;42.714;23.860;2022-12-24T10:04:19;100.65;;;46.83;;
42598;SDS011;28225;42.714;23.860;2022-12-24T10:06:48;153.85;;;75.75;;
42598;SDS011;28225;42.714;23.860;2022-12-24T10:11:55;131.45;;;61.25;;
42598;SDS011;28225;42.714;23.860;2022-12-24T10:27:54;28.88;;;18.52;;
42598;SDS011;28225;42.714;23.860;2022-12-24T10:30:22;34.33;;;22.13;;
42598;SDS011;28225;42.714;23.860;2022-12-24T10:32:49;39.75;;;20.00;;
42598;SDS011;28225;42.714;23.860;2022-12-24T10:37:51;30.83;;;20.23;;
42598;SDS011;28225;42.714;23.860;2022-12-24T10:40:22;42.45;;;28.08;;
42598;SDS011;28225;42.714;23.860;2022-12-24T10:42:52;60.47;;;35.65;;
42598;SDS011;28225;42.714;23.860;2022-12-24T10:45:22;62.25;;;38.58;;
42598;SDS011;28225;42.714;23.860;2022-12-24T10:47:49;53.22;;;33.42;;
42598;SDS011;28225;42.714;23.860;2022-12-24T10:50:38;45.22;;;28.70;;
42598;SDS011;28225;42.714;23.860;2022-12-24T10:53:09;47.30;;;30.40;;
42598;SDS011;28225;42.714;23.860;2022-12-24T10:55:39;43.53;;;27.13;;
42598;SDS011;28225;42.714;23.860;2022-12-24T10:58:05;32.03;;;22.33;;
42598;SDS011;28225;42.714;23.860;2022-12-24T11:00:36;24.45;;;17.33;;
42598;SDS011;28225;42.714;23.860;2022-12-24T11:03:07;28.48;;;18.70;;
42598;SDS011;28225;42.714;23.860;2022-12-24T11:05:46;34.45;;;20.48;;
42598;SDS011;28225;42.714;23.860;2022-12-24T11:08:24;35.75;;;21.63;;
42598;SDS011;28225;42.714;23.860;2022-12-24T11:11:10;34.95;;;22.08;;
42598;SDS011;28225;42.714;23.860;2022-12-24T11:20:18;27.40;;;16.45;;
42598;SDS011;28225;42.714;23.860;2022-12-24T11:22:49;25.00;;;16.05;;
42598;SDS011;28225;42.714;23.860;2022-12-24T11:25:19;47.55;;;25.75;;
42598;SDS011;28225;42.714;23.860;2022-12-24T11:27:47;44.78;;;27.73;;
42598;SDS011;28225;42.714;23.860;2022-12-24T11:30:19;24.95;;;17.75;;
42598;SDS011;28225;42.714;23.860;2022-12-24T11:32:48;23.65;;;15.02;;
42598;SDS011;28225;42.714;23.860;2022-12-24T11:35:22;26.20;;;15.30;;
42598;SDS011;28225;42.714;23.860;2022-12-24T11:37:48;23.42;;;14.27;;
42598;SDS011;28225;42.714;23.860;2022-12-24T11:40:34;16.95;;;11.95;;
42598;SDS011;28225;42.714;23.860;2022-12-24T11:43:01;21.95;;;11.82;;
42598;SDS011;28225;42.714;23.860;2022-12-24T11:45:29;17.50;;;11.13;;
42598;SDS011;28225;42.714;23.860;2022-12-24T11:47:55;14.65;;;9.55;;
42598;SDS011;28225;42.714;23.860;2022-12-24T11:50:28;17.00;;;10.15;;
42598;SDS011;28225;42.714;23.860;2022-12-24T11:58:37;13.20;;;9.57;;
42598;SDS011;28225;42.714;23.860;2022-12-24T12:01:10;13.93;;;9.23;;
42598;SDS011;28225;42.714;23.860;2022-12-24T12:04:05;18.63;;;10.85;;
42598;SDS011;28225;42.714;23.860;2022-12-24T12:06:59;58.70;;;33.80;;
42598;SDS011;28225;42.714;23.860;2022-12-24T12:10:14;18.35;;;12.63;;
42598;SDS011;28225;42.714;23.860;2022-12-24T12:12:19;18.30;;;12.75;;
42598;SDS011;28225;42.714;23.860;2022-12-24T12:17:21;23.35;;;13.75;;
42598;SDS011;28225;42.714;23.860;2022-12-24T12:25:43;26.80;;;14.15;;
42598;SDS011;28225;42.714;23.860;2022-12-24T12:28:41;19.02;;;11.50;;
42598;SDS011;28225;42.714;23.860;2022-12-24T12:31:14;16.17;;;11.10;;
42598;SDS011;28225;42.714;23.860;2022-12-24T12:33:47;22.67;;;11.98;;
42598;SDS011;28225;42.714;23.860;2022-12-24T12:36:18;20.98;;;13.02;;
42598;SDS011;28225;42.714;23.860;2022-12-24T12:38:46;16.52;;;12.18;;
42598;SDS011;28225;42.714;23.860;2022-12-24T12:57:47;18.55;;;11.77;;
42598;SDS011;28225;42.714;23.860;2022-12-24T13:00:15;36.90;;;17.85;;
42598;SDS011;28225;42.714;23.860;2022-12-24T13:19:00;27.42;;;13.85;;
42598;SDS011;28225;42.714;23.860;2022-12-24T13:21:28;25.20;;;15.40;;
42598;SDS011;28225;42.714;23.860;2022-12-24T13:24:12;25.10;;;16.20;;
42598;SDS011;28225;42.714;23.860;2022-12-24T13:26:39;34.53;;;18.13;;
42598;SDS011;28225;42.714;23.860;2022-12-24T13:34:47;27.02;;;17.15;;
42598;SDS011;28225;42.714;23.860;2022-12-24T13:37:20;25.75;;;15.10;;
42598;SDS011;28225;42.714;23.860;2022-12-24T13:50:40;47.65;;;23.73;;
42598;SDS011;28225;42.714;23.860;2022-12-24T13:55:49;103.22;;;57.55;;
42598;SDS011;28225;42.714;23.860;2022-12-24T13:58:18;57.83;;;33.45;;
42598;SDS011;28225;42.714;23.860;2022-12-24T14:03:24;27.67;;;18.60;;
42598;SDS011;28225;42.714;23.860;2022-12-24T14:06:06;19.92;;;13.23;;
42598;SDS011;28225;42.714;23.860;2022-12-24T14:08:39;17.67;;;10.48;;
42598;SDS011;28225;42.714;23.860;2022-12-24T14:11:09;20.63;;;12.88;;
42598;SDS011;28225;42.714;23.860;2022-12-24T14:13:49;20.13;;;13.15;;
42598;SDS011;28225;42.714;23.860;2022-12-24T14:16:23;24.35;;;14.98;;
42598;SDS011;28225;42.714;23.860;2022-12-24T14:18:59;22.42;;;14.15;;
42598;SDS011;28225;42.714;23.860;2022-12-24T14:21:27;21.00;;;14.05;;
42598;SDS011;28225;42.714;23.860;2022-12-24T14:23:57;18.45;;;12.50;;
42598;SDS011;28225;42.714;23.860;2022-12-24T14:26:33;20.65;;;14.23;;
42598;SDS011;28225;42.714;23.860;2022-12-24T14:29:02;25.48;;;16.42;;
42598;SDS011;28225;42.714;23.860;2022-12-24T14:31:31;23.08;;;13.45;;
42598;SDS011;28225;42.714;23.860;2022-12-24T14:34:07;24.08;;;15.02;;
42598;SDS011;28225;42.714;23.860;2022-12-24T14:36:37;23.58;;;15.07;;
42598;SDS011;28225;42.714;23.860;2022-12-24T14:39:07;23.13;;;15.43;;
42598;SDS011;28225;42.714;23.860;2022-12-24T14:54:50;43.42;;;12.38;;
42598;SDS011;28225;42.714;23.860;2022-12-24T14:57:23;14.10;;;10.15;;
42598;SDS011;28225;42.714;23.860;2022-12-24T14:59:56;26.13;;;10.63;;
42598;SDS011;28225;42.714;23.860;2022-12-24T15:05:08;18.05;;;11.57;;
42598;SDS011;28225;42.714;23.860;2022-12-24T15:07:45;21.83;;;14.15;;
42598;SDS011;28225;42.714;23.860;2022-12-24T15:10:30;18.70;;;12.32;;
42598;SDS011;28225;42.714;23.860;2022-12-24T15:13:03;17.92;;;12.38;;
42598;SDS011;28225;42.714;23.860;2022-12-24T15:15:33;15.80;;;10.73;;
42598;SDS011;28225;42.714;23.860;2022-12-24T15:17:59;32.83;;;20.92;;
42598;SDS011;28225;42.714;23.860;2022-12-24T15:20:26;21.65;;;14.57;;
42598;SDS011;28225;42.714;23.860;2022-12-24T15:22:53;30.52;;;17.35;;
42598;SDS011;28225;42.714;23.860;2022-12-24T15:25:27;22.65;;;14.88;;
42598;SDS011;28225;42.714;23.860;2022-12-24T15:27:55;21.75;;;12.00;;
42598;SDS011;28225;42.714;23.860;2022-12-24T15:30:23;20.95;;;12.65;;
42598;SDS011;28225;42.714;23.860;2022-12-24T15:32:56;65.72;;;29.48;;
42598;SDS011;28225;42.714;23.860;2022-12-24T15:35:32;83.75;;;37.53;;
42598;SDS011;28225;42.714;23.860;2022-12-24T15:40:58;74.40;;;38.45;;
42598;SDS011;28225;42.714;23.860;2022-12-24T15:43:25;76.47;;;39.15;;
42598;SDS011;28225;42.714;23.860;2022-12-24T15:45:50;58.83;;;31.02;;
42598;SDS011;28225;42.714;23.860;2022-12-24T15:48:23;74.88;;;38.60;;
42598;SDS011;28225;42.714;23.860;2022-12-24T15:50:54;55.53;;;31.05;;
42598;SDS011;28225;42.714;23.860;2022-12-24T15:53:29;57.53;;;29.45;;
42598;SDS011;28225;42.714;23.860;2022-12-24T15:56:00;52.55;;;29.13;;
42598;SDS011;28225;42.714;23.860;2022-12-24T15:58:27;48.88;;;28.10;;
42598;SDS011;28225;42.714;23.860;2022-12-24T16:01:38;42.25;;;24.88;;
42598;SDS011;28225;42.714;23.860;2022-12-24T16:03:56;36.63;;;21.58;;
42598;SDS011;28225;42.714;23.860;2022-12-24T16:06:22;38.72;;;20.25;;
42598;SDS011;28225;42.714;23.860;2022-12-24T16:08:48;62.05;;;27.38;;
42598;SDS011;28225;42.714;23.860;2022-12-24T16:11:32;41.75;;;26.50;;
42598;SDS011;28225;42.714;23.860;2022-12-24T16:14:00;46.80;;;26.65;;
42598;SDS011;28225;42.714;23.860;2022-12-24T16:16:30;39.72;;;25.38;;
42598;SDS011;28225;42.714;23.860;2022-12-24T16:18:58;36.58;;;23.15;;
42598;SDS011;28225;42.714;23.860;2022-12-24T16:21:49;37.33;;;23.38;;
42598;SDS011;28225;42.714;23.860;2022-12-24T16:26:40;28.45;;;18.20;;
42598;SDS011;28225;42.714;23.860;2022-12-24T16:29:06;57.05;;;30.13;;
42598;SDS011;28225;42.714;23.860;2022-12-24T16:31:35;57.45;;;29.98;;
42598;SDS011;28225;42.714;23.860;2022-12-24T16:34:04;34.53;;;21.92;;
42598;SDS011;28225;42.714;23.860;2022-12-24T16:36:30;30.83;;;20.00;;
42598;SDS011;28225;42.714;23.860;2022-12-24T16:38:56;48.05;;;27.25;;
42598;SDS011;28225;42.714;23.860;2022-12-24T16:41:41;46.97;;;27.33;;
42598;SDS011;28225;42.714;23.860;2022-12-24T16:44:25;74.75;;;33.60;;
42598;SDS011;28225;42.714;23.860;2022-12-24T16:46:51;47.40;;;28.77;;